sensor_id;sensor_type;location;lat;lon;timestamp;P1;durP1;ratioP1;P2;durP2;ratioP2
61373;SDS011;47242;48.158;-1.586;2023-04-24T04:31:59;9.35;;;3.15;;
61373;SDS011;47242;48.158;-1.586;2023-04-24T04:34:26;7.60;;;2.63;;
61373;SDS011;47242;48.158;-1.586;2023-04-24T04:36:52;3.50;;;2.50;;
61373;SDS011;47242;48.158;-1.586;2023-04-24T04:39:17;4.57;;;2.85;;
61373;SDS011;47242;48.158;-1.586;2023-04-24T04:41:43;5.05;;;2.97;;
61373;SDS011;47242;48.158;-1.586;2023-04-24T04:44:11;8.55;;;3.05;;
61373;SDS011;47242;48.158;-1.586;2023-04-24T04:46:37;6.18;;;3.28;;
61373;SDS011;47242;48.158;-1.586;2023-04-24T04:49:03;5.05;;;2.63;;
61373;SDS011;47242;48.158;-1.586;2023-04-24T04:51:29;5.20;;;2.25;;
61373;SDS011;47242;48.158;-1.586;2023-04-24T04:53:56;5.25;;;2.85;;
61373;SDS011;47242;48.158;-1.586;2023-04-24T04:56:21;10.75;;;2.92;;
61373;SDS011;47242;48.158;-1.586;2023-04-24T04:58:47;4.60;;;2.78;;
61373;SDS011;47242;48.158;-1.586;2023-04-24T05:01:12;9.52;;;2.83;;
61373;SDS011;47242;48.158;-1.586;2023-04-24T05:03:38;6.45;;;3.33;;
61373;SDS011;47242;48.158;-1.586;2023-04-24T05:06:05;6.10;;;2.95;;
61373;SDS011;47242;48.158;-1.586;2023-04-24T05:08:31;4.35;;;2.63;;
61373;SDS011;47242;48.158;-1.586;2023-04-24T05:10:56;6.50;;;3.42;;
61373;SDS011;47242;48.158;-1.586;2023-04-24T05:13:22;5.75;;;2.38;;
61373;SDS011;47242;48.158;-1.586;2023-04-24T05:15:48;5.88;;;2.80;;
61373;SDS011;47242;48.158;-1.586;2023-04-24T05:18:13;6.05;;;3.10;;
61373;SDS011;47242;48.158;-1.586;2023-04-24T05:20:40;5.82;;;2.97;;
61373;SDS011;47242;48.158;-1.586;2023-04-24T05:23:08;6.35;;;2.97;;
61373;SDS011;47242;48.158;-1.586;2023-04-24T05:25:33;7.60;;;3.17;;
61373;SDS011;47242;48.158;-1.586;2023-04-24T05:28:00;5.80;;;2.88;;
61373;SDS011;47242;48.158;-1.586;2023-04-24T05:30:26;4.75;;;2.83;;
61373;SDS011;47242;48.158;-1.586;2023-04-24T05:32:52;5.25;;;2.88;;
61373;SDS011;47242;48.158;-1.586;2023-04-24T05:35:17;6.72;;;2.72;;
61373;SDS011;47242;48.158;-1.586;2023-04-24T05:37:43;6.70;;;2.90;;
61373;SDS011;47242;48.158;-1.586;2023-04-24T05:40:09;6.18;;;3.15;;
61373;SDS011;47242;48.158;-1.586;2023-04-24T05:42:36;6.38;;;4.15;;
61373;SDS011;47242;48.158;-1.586;2023-04-24T05:45:01;5.20;;;2.78;;
61373;SDS011;47242;48.158;-1.586;2023-04-24T05:47:28;8.00;;;3.22;;
61373;SDS011;47242;48.158;-1.586;2023-04-24T05:49:53;8.18;;;3.38;;
61373;SDS011;47242;48.158;-1.586;2023-04-24T05:52:19;6.13;;;2.85;;
61373;SDS011;47242;48.158;-1.586;2023-04-24T05:54:45;7.00;;;3.17;;
61373;SDS011;47242;48.158;-1.586;2023-04-24T05:57:10;4.03;;;3.03;;
61373;SDS011;47242;48.158;-1.586;2023-04-24T05:59:36;5.75;;;2.55;;
61373;SDS011;47242;48.158;-1.586;2023-04-24T06:02:03;4.82;;;3.25;;
61373;SDS011;47242;48.158;-1.586;2023-04-24T06:04:29;5.10;;;3.00;;
61373;SDS011;47242;48.158;-1.586;2023-04-24T06:06:55;4.72;;;2.83;;
61373;SDS011;47242;48.158;-1.586;2023-04-24T06:09:24;5.15;;;2.63;;
61373;SDS011;47242;48.158;-1.586;2023-04-24T06:11:50;6.00;;;3.20;;
61373;SDS011;47242;48.158;-1.586;2023-04-24T06:14:18;8.75;;;3.08;;
61373;SDS011;47242;48.158;-1.586;2023-04-24T06:16:44;9.00;;;3.30;;
61373;SDS011;47242;48.158;-1.586;2023-04-24T06:19:09;5.80;;;2.50;;
61373;SDS011;47242;48.158;-1.586;2023-04-24T06:21:35;11.85;;;3.40;;
61373;SDS011;47242;48.158;-1.586;2023-04-24T06:24:01;5.45;;;2.92;;
61373;SDS011;47242;48.158;-1.586;2023-04-24T06:26:27;4.75;;;2.58;;
61373;SDS011;47242;48.158;-1.586;2023-04-24T06:28:53;6.18;;;2.72;;
61373;SDS011;47242;48.158;-1.586;2023-04-24T06:31:19;7.60;;;3.20;;
61373;SDS011;47242;48.158;-1.586;2023-04-24T06:33:45;5.97;;;3.13;;
61373;SDS011;47242;48.158;-1.586;2023-04-24T06:36:11;8.55;;;2.83;;
61373;SDS011;47242;48.158;-1.586;2023-04-24T06:38:37;6.70;;;3.35;;
61373;SDS011;47242;48.158;-1.586;2023-04-24T06:41:03;6.97;;;3.05;;
61373;SDS011;47242;48.158;-1.586;2023-04-24T06:43:30;4.28;;;2.88;;
61373;SDS011;47242;48.158;-1.586;2023-04-24T06:45:57;6.47;;;2.92;;
61373;SDS011;47242;48.158;-1.586;2023-04-24T06:48:23;4.18;;;2.78;;
61373;SDS011;47242;48.158;-1.586;2023-04-24T06:50:49;5.60;;;2.60;;
61373;SDS011;47242;48.158;-1.586;2023-04-24T06:53:15;6.97;;;3.35;;
61373;SDS011;47242;48.158;-1.586;2023-04-24T06:55:40;5.60;;;2.83;;
61373;SDS011;47242;48.158;-1.586;2023-04-24T06:58:06;5.05;;;2.72;;
61373;SDS011;47242;48.158;-1.586;2023-04-24T07:00:32;7.45;;;2.97;;
61373;SDS011;47242;48.158;-1.586;2023-04-24T07:02:58;6.25;;;3.22;;
61373;SDS011;47242;48.158;-1.586;2023-04-24T07:05:24;5.88;;;2.80;;
61373;SDS011;47242;48.158;-1.586;2023-04-24T07:07:50;4.07;;;2.78;;
61373;SDS011;47242;48.158;-1.586;2023-04-24T07:10:16;5.10;;;3.00;;
61373;SDS011;47242;48.158;-1.586;2023-04-24T07:12:43;5.30;;;2.92;;
61373;SDS011;47242;48.158;-1.586;2023-04-24T07:15:08;4.32;;;2.53;;
61373;SDS011;47242;48.158;-1.586;2023-04-24T07:17:35;3.50;;;2.25;;
61373;SDS011;47242;48.158;-1.586;2023-04-24T07:20:03;4.57;;;2.45;;
61373;SDS011;47242;48.158;-1.586;2023-04-24T07:22:29;8.00;;;2.55;;
61373;SDS011;47242;48.158;-1.586;2023-04-24T07:24:55;4.53;;;2.30;;
61373;SDS011;47242;48.158;-1.586;2023-04-24T07:27:21;4.22;;;2.45;;
61373;SDS011;47242;48.158;-1.586;2023-04-24T07:29:46;4.28;;;2.17;;
61373;SDS011;47242;48.158;-1.586;2023-04-24T07:32:12;4.18;;;1.92;;
61373;SDS011;47242;48.158;-1.586;2023-04-24T07:34:37;3.58;;;2.67;;
61373;SDS011;47242;48.158;-1.586;2023-04-24T07:37:03;5.53;;;2.10;;
61373;SDS011;47242;48.158;-1.586;2023-04-24T07:39:29;3.22;;;1.80;;
61373;SDS011;47242;48.158;-1.586;2023-04-24T07:41:55;6.90;;;1.80;;
61373;SDS011;47242;48.158;-1.586;2023-04-24T07:44:21;3.90;;;2.17;;
61373;SDS011;47242;48.158;-1.586;2023-04-24T07:46:46;4.63;;;1.67;;
61373;SDS011;47242;48.158;-1.586;2023-04-24T07:49:12;2.97;;;1.77;;
61373;SDS011;47242;48.158;-1.586;2023-04-24T07:51:38;6.40;;;2.33;;
61373;SDS011;47242;48.158;-1.586;2023-04-24T07:54:04;3.55;;;2.00;;
61373;SDS011;47242;48.158;-1.586;2023-04-24T07:56:33;4.40;;;1.60;;
61373;SDS011;47242;48.158;-1.586;2023-04-24T07:58:59;3.30;;;1.67;;
61373;SDS011;47242;48.158;-1.586;2023-04-24T08:01:26;3.88;;;1.73;;
61373;SDS011;47242;48.158;-1.586;2023-04-24T08:03:52;4.35;;;1.42;;
61373;SDS011;47242;48.158;-1.586;2023-04-24T08:06:17;4.80;;;1.33;;
61373;SDS011;47242;48.158;-1.586;2023-04-24T08:08:43;3.75;;;1.70;;
61373;SDS011;47242;48.158;-1.586;2023-04-24T08:11:09;4.78;;;2.03;;
61373;SDS011;47242;48.158;-1.586;2023-04-24T08:13:34;2.33;;;1.75;;
61373;SDS011;47242;48.158;-1.586;2023-04-24T08:16:00;3.20;;;1.90;;
61373;SDS011;47242;48.158;-1.586;2023-04-24T08:18:26;3.97;;;2.10;;
61373;SDS011;47242;48.158;-1.586;2023-04-24T08:20:52;6.38;;;1.60;;
61373;SDS011;47242;48.158;-1.586;2023-04-24T08:23:18;3.90;;;1.92;;
61373;SDS011;47242;48.158;-1.586;2023-04-24T08:25:43;4.65;;;1.90;;
61373;SDS011;47242;48.158;-1.586;2023-04-24T08:28:09;5.40;;;2.00;;
61373;SDS011;47242;48.158;-1.586;2023-04-24T08:30:35;5.95;;;2.10;;
61373;SDS011;47242;48.158;-1.586;2023-04-24T08:33:01;4.55;;;1.90;;
61373;SDS011;47242;48.158;-1.586;2023-04-24T08:35:27;2.55;;;1.70;;
61373;SDS011;47242;48.158;-1.586;2023-04-24T08:37:53;4.82;;;2.00;;
61373;SDS011;47242;48.158;-1.586;2023-04-24T08:40:20;3.80;;;1.92;;
61373;SDS011;47242;48.158;-1.586;2023-04-24T08:42:53;7.18;;;2.30;;
61373;SDS011;47242;48.158;-1.586;2023-04-24T08:45:21;3.08;;;1.65;;
61373;SDS011;47242;48.158;-1.586;2023-04-24T08:47:47;4.80;;;2.15;;
61373;SDS011;47242;48.158;-1.586;2023-04-24T08:50:14;4.20;;;1.75;;
61373;SDS011;47242;48.158;-1.586;2023-04-24T08:52:41;6.30;;;1.95;;
61373;SDS011;47242;48.158;-1.586;2023-04-24T08:55:07;4.93;;;1.70;;
61373;SDS011;47242;48.158;-1.586;2023-04-24T08:57:34;3.80;;;2.00;;
61373;SDS011;47242;48.158;-1.586;2023-04-24T09:00:01;5.07;;;1.30;;
61373;SDS011;47242;48.158;-1.586;2023-04-24T09:02:26;3.75;;;1.73;;
61373;SDS011;47242;48.158;-1.586;2023-04-24T09:04:53;3.30;;;2.03;;
61373;SDS011;47242;48.158;-1.586;2023-04-24T09:07:22;3.88;;;1.73;;
61373;SDS011;47242;48.158;-1.586;2023-04-24T09:09:50;3.30;;;2.00;;
61373;SDS011;47242;48.158;-1.586;2023-04-24T09:12:16;4.28;;;1.52;;
61373;SDS011;47242;48.158;-1.586;2023-04-24T09:14:44;3.45;;;1.40;;
61373;SDS011;47242;48.158;-1.586;2023-04-24T09:17:10;3.10;;;2.10;;
61373;SDS011;47242;48.158;-1.586;2023-04-24T09:19:37;3.95;;;1.95;;
61373;SDS011;47242;48.158;-1.586;2023-04-24T09:22:06;4.10;;;1.92;;
61373;SDS011;47242;48.158;-1.586;2023-04-24T09:24:33;3.42;;;1.60;;
61373;SDS011;47242;48.158;-1.586;2023-04-24T09:26:59;3.58;;;1.90;;
61373;SDS011;47242;48.158;-1.586;2023-04-24T09:29:29;2.90;;;1.60;;
61373;SDS011;47242;48.158;-1.586;2023-04-24T09:31:56;3.70;;;1.92;;
61373;SDS011;47242;48.158;-1.586;2023-04-24T09:34:23;3.90;;;1.40;;
61373;SDS011;47242;48.158;-1.586;2023-04-24T09:36:50;3.90;;;1.55;;
61373;SDS011;47242;48.158;-1.586;2023-04-24T09:39:16;2.42;;;1.30;;
61373;SDS011;47242;48.158;-1.586;2023-04-24T09:41:52;4.15;;;1.65;;
61373;SDS011;47242;48.158;-1.586;2023-04-24T09:44:24;2.67;;;1.33;;
61373;SDS011;47242;48.158;-1.586;2023-04-24T09:46:53;2.80;;;1.55;;
61373;SDS011;47242;48.158;-1.586;2023-04-24T09:49:21;3.03;;;1.63;;
61373;SDS011;47242;48.158;-1.586;2023-04-24T09:51:48;7.50;;;1.57;;
61373;SDS011;47242;48.158;-1.586;2023-04-24T09:54:18;3.85;;;1.40;;
61373;SDS011;47242;48.158;-1.586;2023-04-24T09:56:49;5.20;;;1.73;;
61373;SDS011;47242;48.158;-1.586;2023-04-24T09:59:16;2.92;;;1.23;;
61373;SDS011;47242;48.158;-1.586;2023-04-24T10:01:44;5.78;;;1.67;;
61373;SDS011;47242;48.158;-1.586;2023-04-24T10:04:23;4.15;;;1.40;;
61373;SDS011;47242;48.158;-1.586;2023-04-24T10:06:51;4.90;;;1.58;;
61373;SDS011;47242;48.158;-1.586;2023-04-24T10:09:18;4.18;;;1.45;;
61373;SDS011;47242;48.158;-1.586;2023-04-24T10:11:46;4.13;;;1.65;;
61373;SDS011;47242;48.158;-1.586;2023-04-24T10:14:14;5.55;;;1.80;;
61373;SDS011;47242;48.158;-1.586;2023-04-24T10:16:42;5.47;;;2.08;;
61373;SDS011;47242;48.158;-1.586;2023-04-24T10:19:08;4.53;;;1.60;;
61373;SDS011;47242;48.158;-1.586;2023-04-24T10:21:35;6.82;;;2.33;;
61373;SDS011;47242;48.158;-1.586;2023-04-24T10:24:07;7.07;;;2.25;;
61373;SDS011;47242;48.158;-1.586;2023-04-24T10:26:34;6.65;;;1.75;;
61373;SDS011;47242;48.158;-1.586;2023-04-24T10:29:01;10.57;;;2.05;;
61373;SDS011;47242;48.158;-1.586;2023-04-24T10:31:27;4.88;;;1.92;;
61373;SDS011;47242;48.158;-1.586;2023-04-24T10:33:56;6.15;;;2.00;;
61373;SDS011;47242;48.158;-1.586;2023-04-24T10:36:22;2.78;;;1.83;;
61373;SDS011;47242;48.158;-1.586;2023-04-24T10:38:51;7.25;;;1.92;;
61373;SDS011;47242;48.158;-1.586;2023-04-24T10:41:20;6.25;;;1.92;;
61373;SDS011;47242;48.158;-1.586;2023-04-24T10:43:48;2.63;;;1.40;;
61373;SDS011;47242;48.158;-1.586;2023-04-24T10:46:29;3.53;;;1.98;;
61373;SDS011;47242;48.158;-1.586;2023-04-24T10:48:55;3.70;;;1.75;;
61373;SDS011;47242;48.158;-1.586;2023-04-24T10:51:26;4.78;;;1.23;;
61373;SDS011;47242;48.158;-1.586;2023-04-24T10:59:44;6.28;;;1.67;;
61373;SDS011;47242;48.158;-1.586;2023-04-24T11:02:10;3.92;;;1.63;;
61373;SDS011;47242;48.158;-1.586;2023-04-24T11:04:36;4.60;;;1.85;;
61373;SDS011;47242;48.158;-1.586;2023-04-24T11:07:05;6.68;;;1.63;;
61373;SDS011;47242;48.158;-1.586;2023-04-24T11:09:31;4.80;;;1.77;;
61373;SDS011;47242;48.158;-1.586;2023-04-24T11:12:04;4.28;;;1.75;;
61373;SDS011;47242;48.158;-1.586;2023-04-24T11:15:01;6.32;;;2.53;;
61373;SDS011;47242;48.158;-1.586;2023-04-24T11:17:30;5.45;;;1.60;;
61373;SDS011;47242;48.158;-1.586;2023-04-24T11:20:05;6.07;;;1.60;;
61373;SDS011;47242;48.158;-1.586;2023-04-24T11:22:41;4.07;;;2.00;;
61373;SDS011;47242;48.158;-1.586;2023-04-24T11:25:07;6.47;;;2.60;;
61373;SDS011;47242;48.158;-1.586;2023-04-24T11:27:43;6.00;;;2.00;;
61373;SDS011;47242;48.158;-1.586;2023-04-24T11:30:11;3.45;;;1.80;;
61373;SDS011;47242;48.158;-1.586;2023-04-24T11:32:37;4.55;;;2.10;;
61373;SDS011;47242;48.158;-1.586;2023-04-24T11:37:40;5.68;;;1.92;;
61373;SDS011;47242;48.158;-1.586;2023-04-24T11:40:12;7.63;;;2.20;;
61373;SDS011;47242;48.158;-1.586;2023-04-24T11:42:41;4.50;;;1.85;;
61373;SDS011;47242;48.158;-1.586;2023-04-24T11:47:35;6.25;;;1.98;;
61373;SDS011;47242;48.158;-1.586;2023-04-24T11:50:01;4.22;;;1.90;;
61373;SDS011;47242;48.158;-1.586;2023-04-24T11:52:27;5.15;;;1.50;;
61373;SDS011;47242;48.158;-1.586;2023-04-24T11:54:54;5.00;;;1.63;;
61373;SDS011;47242;48.158;-1.586;2023-04-24T11:57:20;13.23;;;2.20;;
61373;SDS011;47242;48.158;-1.586;2023-04-24T11:59:46;7.90;;;2.22;;
61373;SDS011;47242;48.158;-1.586;2023-04-24T12:02:22;6.40;;;1.58;;
61373;SDS011;47242;48.158;-1.586;2023-04-24T12:04:49;5.78;;;1.50;;
61373;SDS011;47242;48.158;-1.586;2023-04-24T12:07:14;6.95;;;2.17;;
61373;SDS011;47242;48.158;-1.586;2023-04-24T12:09:54;4.40;;;1.58;;
61373;SDS011;47242;48.158;-1.586;2023-04-24T12:12:24;4.55;;;1.63;;
61373;SDS011;47242;48.158;-1.586;2023-04-24T12:14:55;2.80;;;1.40;;
61373;SDS011;47242;48.158;-1.586;2023-04-24T12:19:52;3.65;;;1.75;;
61373;SDS011;47242;48.158;-1.586;2023-04-24T12:22:21;4.47;;;1.55;;
61373;SDS011;47242;48.158;-1.586;2023-04-24T12:24:57;4.75;;;1.50;;
61373;SDS011;47242;48.158;-1.586;2023-04-24T12:27:35;4.97;;;1.42;;
61373;SDS011;47242;48.158;-1.586;2023-04-24T12:30:02;7.18;;;1.63;;
61373;SDS011;47242;48.158;-1.586;2023-04-24T12:32:31;4.68;;;1.58;;
61373;SDS011;47242;48.158;-1.586;2023-04-24T12:34:57;5.97;;;1.65;;
61373;SDS011;47242;48.158;-1.586;2023-04-24T12:37:26;3.90;;;1.42;;
61373;SDS011;47242;48.158;-1.586;2023-04-24T12:40:08;4.68;;;1.42;;
61373;SDS011;47242;48.158;-1.586;2023-04-24T12:42:42;8.70;;;1.75;;
61373;SDS011;47242;48.158;-1.586;2023-04-24T12:45:09;3.65;;;1.35;;
61373;SDS011;47242;48.158;-1.586;2023-04-24T12:47:37;4.32;;;1.70;;
61373;SDS011;47242;48.158;-1.586;2023-04-24T12:50:03;5.50;;;1.45;;
61373;SDS011;47242;48.158;-1.586;2023-04-24T12:52:30;6.47;;;1.60;;
61373;SDS011;47242;48.158;-1.586;2023-04-24T12:54:58;3.92;;;1.15;;
61373;SDS011;47242;48.158;-1.586;2023-04-24T12:57:25;3.50;;;1.33;;
61373;SDS011;47242;48.158;-1.586;2023-04-24T12:59:55;6.00;;;2.00;;
61373;SDS011;47242;48.158;-1.586;2023-04-24T13:02:22;5.93;;;1.23;;
61373;SDS011;47242;48.158;-1.586;2023-04-24T13:04:48;5.25;;;1.88;;
61373;SDS011;47242;48.158;-1.586;2023-04-24T13:07:15;8.02;;;1.55;;
61373;SDS011;47242;48.158;-1.586;2023-04-24T13:09:41;5.43;;;1.50;;
61373;SDS011;47242;48.158;-1.586;2023-04-24T13:12:08;6.72;;;1.75;;
61373;SDS011;47242;48.158;-1.586;2023-04-24T13:14:35;4.70;;;1.40;;
61373;SDS011;47242;48.158;-1.586;2023-04-24T13:17:01;5.30;;;1.25;;
61373;SDS011;47242;48.158;-1.586;2023-04-24T13:19:27;5.28;;;1.70;;
61373;SDS011;47242;48.158;-1.586;2023-04-24T13:21:54;4.22;;;1.35;;
61373;SDS011;47242;48.158;-1.586;2023-04-24T13:24:22;3.53;;;1.50;;
61373;SDS011;47242;48.158;-1.586;2023-04-24T13:26:52;4.47;;;1.30;;
61373;SDS011;47242;48.158;-1.586;2023-04-24T13:29:18;3.35;;;1.20;;
61373;SDS011;47242;48.158;-1.586;2023-04-24T13:31:45;6.75;;;1.77;;
61373;SDS011;47242;48.158;-1.586;2023-04-24T13:34:12;2.95;;;1.67;;
61373;SDS011;47242;48.158;-1.586;2023-04-24T13:36:38;4.30;;;1.83;;
61373;SDS011;47242;48.158;-1.586;2023-04-24T13:39:04;6.72;;;2.28;;
61373;SDS011;47242;48.158;-1.586;2023-04-24T13:41:30;7.90;;;2.45;;
61373;SDS011;47242;48.158;-1.586;2023-04-24T13:43:57;3.53;;;1.45;;
61373;SDS011;47242;48.158;-1.586;2023-04-24T13:46:23;5.78;;;1.50;;
61373;SDS011;47242;48.158;-1.586;2023-04-24T13:48:49;3.70;;;1.90;;
61373;SDS011;47242;48.158;-1.586;2023-04-24T13:51:14;4.28;;;1.95;;
61373;SDS011;47242;48.158;-1.586;2023-04-24T13:53:40;5.15;;;1.70;;
61373;SDS011;47242;48.158;-1.586;2023-04-24T13:56:05;5.47;;;2.40;;
61373;SDS011;47242;48.158;-1.586;2023-04-24T13:58:31;7.05;;;2.10;;
61373;SDS011;47242;48.158;-1.586;2023-04-24T14:00:57;3.83;;;1.50;;
61373;SDS011;47242;48.158;-1.586;2023-04-24T14:03:23;4.10;;;1.67;;
61373;SDS011;47242;48.158;-1.586;2023-04-24T14:05:49;4.55;;;1.75;;
61373;SDS011;47242;48.158;-1.586;2023-04-24T14:08:14;3.33;;;1.67;;
61373;SDS011;47242;48.158;-1.586;2023-04-24T14:10:40;3.38;;;1.55;;
61373;SDS011;47242;48.158;-1.586;2023-04-24T14:13:07;6.20;;;1.55;;
61373;SDS011;47242;48.158;-1.586;2023-04-24T14:15:34;3.72;;;1.80;;
61373;SDS011;47242;48.158;-1.586;2023-04-24T14:18:01;6.13;;;2.08;;
61373;SDS011;47242;48.158;-1.586;2023-04-24T14:20:28;5.40;;;1.80;;
61373;SDS011;47242;48.158;-1.586;2023-04-24T14:22:53;2.00;;;1.27;;
61373;SDS011;47242;48.158;-1.586;2023-04-24T14:25:19;2.38;;;1.30;;
61373;SDS011;47242;48.158;-1.586;2023-04-24T14:27:45;6.40;;;1.40;;
61373;SDS011;47242;48.158;-1.586;2023-04-24T14:30:12;3.30;;;1.50;;
61373;SDS011;47242;48.158;-1.586;2023-04-24T14:32:38;6.30;;;1.48;;
61373;SDS011;47242;48.158;-1.586;2023-04-24T14:35:05;4.82;;;1.60;;
61373;SDS011;47242;48.158;-1.586;2023-04-24T14:37:31;8.05;;;1.95;;
61373;SDS011;47242;48.158;-1.586;2023-04-24T14:39:57;6.60;;;2.05;;
61373;SDS011;47242;48.158;-1.586;2023-04-24T14:42:23;8.30;;;2.40;;
61373;SDS011;47242;48.158;-1.586;2023-04-24T14:44:49;5.95;;;2.00;;
61373;SDS011;47242;48.158;-1.586;2023-04-24T14:47:15;5.53;;;2.15;;
61373;SDS011;47242;48.158;-1.586;2023-04-24T14:49:42;4.95;;;2.17;;
61373;SDS011;47242;48.158;-1.586;2023-04-24T14:52:09;4.55;;;2.38;;
61373;SDS011;47242;48.158;-1.586;2023-04-24T14:54:35;8.57;;;2.65;;
61373;SDS011;47242;48.158;-1.586;2023-04-24T14:57:00;6.53;;;2.33;;
61373;SDS011;47242;48.158;-1.586;2023-04-24T14:59:27;9.23;;;2.70;;
61373;SDS011;47242;48.158;-1.586;2023-04-24T15:01:53;6.95;;;2.75;;
61373;SDS011;47242;48.158;-1.586;2023-04-24T15:04:22;8.20;;;2.53;;
61373;SDS011;47242;48.158;-1.586;2023-04-24T15:06:50;6.35;;;1.92;;
61373;SDS011;47242;48.158;-1.586;2023-04-24T15:09:19;7.32;;;2.55;;
61373;SDS011;47242;48.158;-1.586;2023-04-24T15:11:46;6.57;;;2.60;;
61373;SDS011;47242;48.158;-1.586;2023-04-24T15:14:12;3.60;;;1.95;;
61373;SDS011;47242;48.158;-1.586;2023-04-24T15:16:38;7.00;;;2.28;;
61373;SDS011;47242;48.158;-1.586;2023-04-24T15:19:04;3.17;;;1.83;;
61373;SDS011;47242;48.158;-1.586;2023-04-24T15:21:29;5.05;;;2.03;;
61373;SDS011;47242;48.158;-1.586;2023-04-24T15:23:56;6.50;;;2.33;;
61373;SDS011;47242;48.158;-1.586;2023-04-24T15:26:22;3.58;;;1.73;;
61373;SDS011;47242;48.158;-1.586;2023-04-24T15:28:48;6.20;;;1.67;;
61373;SDS011;47242;48.158;-1.586;2023-04-24T15:31:14;4.65;;;1.45;;
61373;SDS011;47242;48.158;-1.586;2023-04-24T15:33:40;2.97;;;1.60;;
61373;SDS011;47242;48.158;-1.586;2023-04-24T15:36:06;5.10;;;1.40;;
61373;SDS011;47242;48.158;-1.586;2023-04-24T15:38:31;11.50;;;1.83;;
61373;SDS011;47242;48.158;-1.586;2023-04-24T15:40:57;1.92;;;1.20;;
61373;SDS011;47242;48.158;-1.586;2023-04-24T15:43:23;5.13;;;1.15;;
61373;SDS011;47242;48.158;-1.586;2023-04-24T15:45:49;4.68;;;1.42;;
61373;SDS011;47242;48.158;-1.586;2023-04-24T15:48:15;4.60;;;0.93;;
61373;SDS011;47242;48.158;-1.586;2023-04-24T15:50:41;4.13;;;1.33;;
61373;SDS011;47242;48.158;-1.586;2023-04-24T15:53:06;4.93;;;1.40;;
61373;SDS011;47242;48.158;-1.586;2023-04-24T15:55:32;3.83;;;1.80;;
61373;SDS011;47242;48.158;-1.586;2023-04-24T15:57:58;4.07;;;1.23;;
61373;SDS011;47242;48.158;-1.586;2023-04-24T16:00:25;6.32;;;2.17;;
61373;SDS011;47242;48.158;-1.586;2023-04-24T16:02:52;4.55;;;1.65;;
61373;SDS011;47242;48.158;-1.586;2023-04-24T16:05:18;3.17;;;1.63;;
61373;SDS011;47242;48.158;-1.586;2023-04-24T16:07:44;7.18;;;1.83;;
61373;SDS011;47242;48.158;-1.586;2023-04-24T16:10:10;3.63;;;1.38;;
61373;SDS011;47242;48.158;-1.586;2023-04-24T16:12:35;5.47;;;2.42;;
61373;SDS011;47242;48.158;-1.586;2023-04-24T16:15:01;8.00;;;1.95;;
61373;SDS011;47242;48.158;-1.586;2023-04-24T16:17:27;4.80;;;2.28;;
61373;SDS011;47242;48.158;-1.586;2023-04-24T16:19:53;5.53;;;1.50;;
61373;SDS011;47242;48.158;-1.586;2023-04-24T16:22:19;3.65;;;2.30;;
61373;SDS011;47242;48.158;-1.586;2023-04-24T16:24:44;5.05;;;2.00;;
61373;SDS011;47242;48.158;-1.586;2023-04-24T16:27:12;7.57;;;1.50;;
61373;SDS011;47242;48.158;-1.586;2023-04-24T16:29:38;5.47;;;1.65;;
61373;SDS011;47242;48.158;-1.586;2023-04-24T16:32:04;5.55;;;1.48;;
61373;SDS011;47242;48.158;-1.586;2023-04-24T16:34:30;4.07;;;2.40;;
61373;SDS011;47242;48.158;-1.586;2023-04-24T16:36:56;9.93;;;2.75;;
61373;SDS011;47242;48.158;-1.586;2023-04-24T16:39:21;6.35;;;2.30;;
61373;SDS011;47242;48.158;-1.586;2023-04-24T16:41:47;6.88;;;2.65;;
61373;SDS011;47242;48.158;-1.586;2023-04-24T16:44:13;6.95;;;2.25;;
61373;SDS011;47242;48.158;-1.586;2023-04-24T16:46:39;5.43;;;2.47;;
61373;SDS011;47242;48.158;-1.586;2023-04-24T16:49:05;10.25;;;2.30;;
61373;SDS011;47242;48.158;-1.586;2023-04-24T16:51:31;3.40;;;1.90;;
61373;SDS011;47242;48.158;-1.586;2023-04-24T16:53:57;6.55;;;2.28;;
61373;SDS011;47242;48.158;-1.586;2023-04-24T16:56:23;2.95;;;1.85;;
61373;SDS011;47242;48.158;-1.586;2023-04-24T16:58:49;4.30;;;2.28;;
61373;SDS011;47242;48.158;-1.586;2023-04-24T17:01:15;3.83;;;2.30;;
61373;SDS011;47242;48.158;-1.586;2023-04-24T17:03:40;4.95;;;2.03;;
61373;SDS011;47242;48.158;-1.586;2023-04-24T17:06:06;5.32;;;2.85;;
61373;SDS011;47242;48.158;-1.586;2023-04-24T17:08:32;2.97;;;1.92;;
61373;SDS011;47242;48.158;-1.586;2023-04-24T17:10:57;5.20;;;2.17;;
61373;SDS011;47242;48.158;-1.586;2023-04-24T17:13:23;7.35;;;2.90;;
61373;SDS011;47242;48.158;-1.586;2023-04-24T17:15:49;6.10;;;2.00;;
61373;SDS011;47242;48.158;-1.586;2023-04-24T17:18:14;5.63;;;2.67;;
61373;SDS011;47242;48.158;-1.586;2023-04-24T17:20:41;7.28;;;2.45;;
61373;SDS011;47242;48.158;-1.586;2023-04-24T17:23:07;6.18;;;2.35;;
61373;SDS011;47242;48.158;-1.586;2023-04-24T17:25:35;8.38;;;2.53;;
61373;SDS011;47242;48.158;-1.586;2023-04-24T17:28:01;3.17;;;2.15;;
61373;SDS011;47242;48.158;-1.586;2023-04-24T17:30:27;7.40;;;2.75;;
61373;SDS011;47242;48.158;-1.586;2023-04-24T17:32:53;5.97;;;2.45;;
61373;SDS011;47242;48.158;-1.586;2023-04-24T17:35:19;6.28;;;2.33;;
61373;SDS011;47242;48.158;-1.586;2023-04-24T17:37:45;3.45;;;2.08;;
61373;SDS011;47242;48.158;-1.586;2023-04-24T17:40:10;7.05;;;3.00;;
61373;SDS011;47242;48.158;-1.586;2023-04-24T17:42:36;5.55;;;3.47;;
61373;SDS011;47242;48.158;-1.586;2023-04-24T17:45:05;4.93;;;2.95;;
61373;SDS011;47242;48.158;-1.586;2023-04-24T17:47:31;6.97;;;3.30;;
61373;SDS011;47242;48.158;-1.586;2023-04-24T17:49:57;6.30;;;3.00;;
61373;SDS011;47242;48.158;-1.586;2023-04-24T17:52:22;7.45;;;2.88;;
61373;SDS011;47242;48.158;-1.586;2023-04-24T17:54:48;6.25;;;3.45;;
61373;SDS011;47242;48.158;-1.586;2023-04-24T17:57:14;4.45;;;2.70;;
61373;SDS011;47242;48.158;-1.586;2023-04-24T17:59:40;10.23;;;3.72;;
61373;SDS011;47242;48.158;-1.586;2023-04-24T18:02:05;7.00;;;3.47;;
61373;SDS011;47242;48.158;-1.586;2023-04-24T18:04:31;4.05;;;3.47;;
61373;SDS011;47242;48.158;-1.586;2023-04-24T18:06:57;9.38;;;3.67;;
61373;SDS011;47242;48.158;-1.586;2023-04-24T18:09:22;7.45;;;3.58;;
61373;SDS011;47242;48.158;-1.586;2023-04-24T18:11:48;8.55;;;3.85;;
61373;SDS011;47242;48.158;-1.586;2023-04-24T18:14:14;6.78;;;3.30;;
61373;SDS011;47242;48.158;-1.586;2023-04-24T18:16:40;8.32;;;3.45;;
61373;SDS011;47242;48.158;-1.586;2023-04-24T18:19:05;8.38;;;3.50;;
61373;SDS011;47242;48.158;-1.586;2023-04-24T18:21:31;6.78;;;3.10;;
61373;SDS011;47242;48.158;-1.586;2023-04-24T18:23:57;7.35;;;2.97;;
61373;SDS011;47242;48.158;-1.586;2023-04-24T18:26:24;5.30;;;3.38;;
61373;SDS011;47242;48.158;-1.586;2023-04-24T18:28:50;5.60;;;2.92;;
61373;SDS011;47242;48.158;-1.586;2023-04-24T18:31:16;11.50;;;4.20;;
61373;SDS011;47242;48.158;-1.586;2023-04-24T18:33:42;5.85;;;3.28;;
61373;SDS011;47242;48.158;-1.586;2023-04-24T18:36:07;12.00;;;4.63;;
61373;SDS011;47242;48.158;-1.586;2023-04-24T18:38:33;6.15;;;2.92;;
61373;SDS011;47242;48.158;-1.586;2023-04-24T18:41:00;4.32;;;2.78;;
61373;SDS011;47242;48.158;-1.586;2023-04-24T18:43:26;9.88;;;3.38;;
61373;SDS011;47242;48.158;-1.586;2023-04-24T18:45:52;6.65;;;2.88;;
61373;SDS011;47242;48.158;-1.586;2023-04-24T18:48:18;4.97;;;2.95;;
61373;SDS011;47242;48.158;-1.586;2023-04-24T18:50:43;9.73;;;2.97;;
61373;SDS011;47242;48.158;-1.586;2023-04-24T18:53:09;5.40;;;2.55;;
61373;SDS011;47242;48.158;-1.586;2023-04-24T18:55:38;10.17;;;3.47;;
61373;SDS011;47242;48.158;-1.586;2023-04-24T18:58:05;8.45;;;3.53;;
61373;SDS011;47242;48.158;-1.586;2023-04-24T19:00:30;9.45;;;3.72;;
61373;SDS011;47242;48.158;-1.586;2023-04-24T19:02:56;7.45;;;3.60;;
61373;SDS011;47242;48.158;-1.586;2023-04-24T19:05:22;8.48;;;4.15;;
61373;SDS011;47242;48.158;-1.586;2023-04-24T19:07:47;6.18;;;2.90;;
61373;SDS011;47242;48.158;-1.586;2023-04-24T19:10:14;8.75;;;3.75;;
61373;SDS011;47242;48.158;-1.586;2023-04-24T19:12:40;5.15;;;2.85;;
61373;SDS011;47242;48.158;-1.586;2023-04-24T19:15:06;8.30;;;2.40;;